Quelimane, Mozambique
Current Conditions -  °F | °C
As of 9:00 AM on Tuesday 21 Oct 2014 (Local Time) from FQQL Reporting Station
Scattered Clouds Scattered Clouds  
Wind Chill: 81°   Ceiling: Unl
Heat Index: 83°   Visibility: 6mi
Dew Point: 68°   Wind: 2mph
Humidity: 65%   Direction: 230°SW
Pressure: 30.09"   Gusts: NA
Location:  17.88°S, 36.89°E
Report Text: FQQL 210700Z 23002KT 9999 SCT020 27/20 Q1019
Loading
Personal Weather Stations






























Interactive Weather Map
Tropical Storm Tracking
New forecast layout! Learn more

10-Day Weather Forecast

Advertisements
Track Severe Weather on mobile